Don's Testing Zone


Current Conditions
weather data
source:

National Weather Service
Mostly Clear Hot Springs, AR
Mostly Clear, 93°F
Friday, August 18, 2017 5:53 PM CDT
Temperature: 93°F/34°C
Humidity: 56%
Barometer: 29.95in/1013.3mb Barometer Steady
Wind: W at 7mph/11kmh
View other cities:
Searcy | Little Rock | Hot Springs | Russellville | More...
Astronomical Conditions (Clear Sky Clock)
Searcy Clear Sky Clock
    

Radar Images

NWS
    Wx Underground

NWS METAR weather data

ADDS - METARS form results





Aviation Digital Data Service (ADDS) Output produced by METARs form (2336 UTC 18 August 2017) found at http://www.aviationweather.gov/adds/metars/ 

KHOT 182253Z AUTO 21006KT 10SM FEW046 34/24 A2995 RMK AO2 SLP133 T03390239

KHOT 182153Z AUTO VRB05KT 10SM SCT047 34/24 A2996 RMK AO2 SLP139 T03390239

KHOT 182053Z AUTO 21007KT 10SM FEW045 34/24 A2997 RMK AO2 SLP140 T03390239 56016

KHOT 181953Z AUTO 25005KT 10SM CLR 33/22 A2998 RMK AO2 SLP144 T03330222

KHOT 181853Z AUTO 00000KT 10SM FEW044 33/21 A3000 RMK AO2 SLP150 T03280211

KHOT 181753Z AUTO 20003KT 10SM CLR 32/23 A3001 RMK AO2 SLP156 T03170228 1032220222 58012

KHOT 181653Z AUTO VRB04KT 10SM SCT033 31/23 A3004 RMK AO2 SLP164 T03110233

KHOT 181553Z AUTO 27004KT 10SM CLR 29/22 A3005 RMK AO2 SLP169 T02940222

KHOT 181453Z AUTO VRB03KT 10SM CLR 28/24 A3005 RMK AO2 SLP169 T02830239 51008

KHOT 181353Z AUTO 20004KT 10SM CLR 26/24 A3005 RMK AO2 SLP169 T02560239

KHOT 181253Z AUTO VRB03KT 10SM CLR 24/23 A3004 RMK AO2 SLP164 T02390233

KHOT 181153Z AUTO 00000KT 9SM CLR 22/22 A3003 RMK AO2 SLP160 70024 T0222022210239 20222 53006

KHOT 181132Z AUTO 00000KT 3SM BR SCT002 22/22 A3002 RMK AO2 T02220222

KHOT 181123Z AUTO 00000KT 2SM BR BKN002 22/22 A3002 RMK AO2 T02220222

KHOT 181116Z AUTO 00000KT 1 3/4SM BR SCT003 22/22 A3002 RMK AO2 T02220222

KHOT 181053Z AUTO 00000KT 10SM FEW002 23/23 A3001 RMK AO2 SLP156 T02280228

KHOT 181001Z AUTO 00000KT 3SM BR OVC002 23/23 A3001 RMK AO2 T02280228

KHOT 180957Z AUTO 00000KT 1SM BR VV002 23/23 A3001 RMK AO2 T02280228

KHOT 180953Z AUTO 00000KT 1/2SM FG VV001 23/23 A3001 RMK AO2 SLP154 T02280228

KHOT 180940Z AUTO 22003KT 1/4SM FG VV001 23/23 A3000 RMK AO2 T02280228

KHOT 180933Z AUTO 00000KT 1 1/2SM BR OVC001 23/23 A3000 RMK AO2 VIS 1/2V5T02280228

KHOT 180921Z AUTO 28003KT 7SM OVC001 23/23 A3001 RMK AO2 T02280228

KHOT 180853Z AUTO 00000KT 10SM BKN002 OVC007 23/23 A3001 RMK AO2 SLP154T02330233 55001

KHOT 180835Z AUTO 00000KT 10SM BKN002 23/23 A3001 RMK AO2 T02280228

KHOT 180826Z AUTO 00000KT 10SM SCT003 23/23 A3001 RMK AO2 T02280228

KHOT 180753Z AUTO 26003KT 10SM CLR 23/23 A3000 RMK AO2 SLP152 T02280228

KHOT 180653Z AUTO 00000KT 10SM CLR 23/23 A3000 RMK AO2 SLP153 T02330233

KHOT 180553Z AUTO 00000KT 10SM CLR 24/23 A3001 RMK AO2 SLP155 T02390233 1028920233 403110228 50000

KHOT 180453Z AUTO 00000KT 10SM CLR 24/23 A3001 RMK AO2 SLP155 T02390233

KHOT 180353Z AUTO VRB03KT 10SM CLR 24/23 A3002 RMK AO2 SLP159 T02440233

KHOT 180253Z AUTO 26003KT 10SM CLR 26/23 A3001 RMK AO2 SLP156 T02560233 53014

KHOT 180153Z AUTO 00000KT 10SM CLR 26/24 A2999 RMK AO2 SLP149 T02610239

KHOT 180053Z AUTO 25004KT 10SM CLR 27/23 A2998 RMK AO2 SLP145 T02720233

KHOT 172353Z AUTO 27004KT 10SM CLR 29/22 A2997 RMK AO2 SLP141 T02940222 1031120272 55002